createdAt,value
2023-05-07T00:02:17.085Z,101062.09
2023-05-07T00:04:45.305Z,101051.63
2023-05-07T00:07:12.858Z,101055.06
2023-05-07T00:09:40.997Z,101048.94
2023-05-07T00:12:08.659Z,101053.44
2023-05-07T00:14:36.147Z,101052.56
2023-05-07T00:17:03.561Z,101053.38
2023-05-07T00:19:31.107Z,101052.47
2023-05-07T00:21:59.388Z,101061.28
2023-05-07T00:24:26.960Z,101054.31
2023-05-07T00:26:54.466Z,101052.53
2023-05-07T00:29:22.025Z,101054.28
2023-05-07T00:31:51.038Z,101049.91
2023-05-07T00:34:18.666Z,101055.22
2023-05-07T00:36:46.258Z,101058.72
2023-05-07T00:39:13.957Z,101059.66
2023-05-07T00:41:41.622Z,101056.13
2023-05-07T00:44:09.732Z,101053.47
2023-05-07T00:46:37.359Z,101056.09
2023-05-07T00:49:06.235Z,101056.09
2023-05-07T00:51:34.461Z,101049.97
2023-05-07T00:54:03.846Z,101050.88
2023-05-07T00:56:32.280Z,101047.44
2023-05-07T00:59:00.267Z,101053.56
2023-05-07T01:01:27.883Z,101050.91
2023-05-07T01:03:55.512Z,101050.06
2023-05-07T01:06:26.017Z,101049.22
2023-05-07T01:08:54.165Z,101050.94
2023-05-07T01:11:22.432Z,101051.00
2023-05-07T01:13:51.491Z,101047.50
2023-05-07T01:16:19.058Z,101045.78
2023-05-07T01:18:49.235Z,101050.13
2023-05-07T01:21:18.827Z,101041.38
2023-05-07T01:23:47.223Z,101038.84
2023-05-07T01:26:14.716Z,101040.63
2023-05-07T01:28:45.978Z,101040.63
2023-05-07T01:31:14.969Z,101039.81
2023-05-07T01:33:44.794Z,101046.84
2023-05-07T01:36:14.434Z,101039.84
2023-05-07T01:38:43.485Z,101042.44
2023-05-07T01:41:12.401Z,101040.72
2023-05-07T01:43:42.488Z,101044.25
2023-05-07T01:46:11.518Z,101046.88
2023-05-07T01:48:39.822Z,101048.66
2023-05-07T01:51:08.793Z,101046.06
2023-05-07T01:53:41.700Z,101044.34
2023-05-07T01:56:09.556Z,101048.72
2023-05-07T01:58:39.426Z,101050.50
2023-05-07T02:01:06.953Z,101051.44
2023-05-07T02:03:34.720Z,101055.81
2023-05-07T02:06:10.010Z,101051.47
2023-05-07T02:08:40.154Z,101055.88
2023-05-07T02:11:07.682Z,101050.59
2023-05-07T02:13:36.878Z,101051.47
2023-05-07T02:16:05.305Z,101054.97
2023-05-07T02:18:33.146Z,101055.84
2023-05-07T02:21:00.683Z,101055.88
2023-05-07T02:23:28.319Z,101056.78
2023-05-07T02:25:55.913Z,101058.53
2023-05-07T02:28:23.628Z,101066.41
2023-05-07T02:31:01.846Z,101068.16
2023-05-07T02:33:30.927Z,101069.91
2023-05-07T02:36:07.005Z,101075.13
2023-05-07T02:38:35.893Z,101076.88
2023-05-07T02:41:03.474Z,101081.25
2023-05-07T02:43:31.101Z,101076.81
2023-05-07T02:46:08.845Z,101082.94
2023-05-07T02:48:40.128Z,101081.19
2023-05-07T02:51:07.701Z,101088.22
2023-05-07T02:53:36.689Z,101090.81
2023-05-07T02:56:04.496Z,101096.97
2023-05-07T02:58:31.966Z,101099.59
2023-05-07T03:01:01.365Z,101095.19
2023-05-07T03:03:34.125Z,101091.69
2023-05-07T03:06:02.313Z,101093.44
2023-05-07T03:08:29.785Z,101102.22
2023-05-07T03:10:57.480Z,101098.72
2023-05-07T03:13:25.101Z,101109.22
2023-05-07T03:15:53.657Z,101103.97
2023-05-07T03:18:21.295Z,101101.34
2023-05-07T03:20:49.776Z,101107.47
2023-05-07T03:23:18.870Z,101110.09
2023-05-07T03:25:46.502Z,101109.22
2023-05-07T03:28:13.987Z,101104.84
2023-05-07T03:30:47.792Z,101110.94
2023-05-07T03:33:15.697Z,101109.22
2023-05-07T03:35:43.288Z,101117.13
2023-05-07T03:38:12.571Z,101116.25
2023-05-07T03:40:40.018Z,101110.09
2023-05-07T03:43:07.729Z,101116.25
2023-05-07T03:45:38.268Z,101113.59
2023-05-07T03:48:11.401Z,101121.47
2023-05-07T03:50:39.334Z,101121.50
2023-05-07T03:53:07.429Z,101121.50
2023-05-07T03:55:39.851Z,101123.25
2023-05-07T03:58:07.541Z,101126.72
2023-05-07T04:00:39.249Z,101128.50
2023-05-07T04:03:16.431Z,101133.75
2023-05-07T04:05:44.148Z,101125.00
2023-05-07T04:08:11.784Z,101133.75
2023-05-07T04:10:42.600Z,101125.88
2023-05-07T04:13:12.052Z,101128.50
2023-05-07T04:15:39.625Z,101132.00
2023-05-07T04:18:10.893Z,101132.88
2023-05-07T04:20:39.627Z,101129.34
2023-05-07T04:23:11.345Z,101141.63
2023-05-07T04:25:39.535Z,101138.16
2023-05-07T04:28:27.235Z,101141.63
2023-05-07T04:30:55.078Z,101138.16
2023-05-07T04:33:23.710Z,101134.66
2023-05-07T04:35:51.854Z,101133.78
2023-05-07T04:38:19.511Z,101130.25
2023-05-07T04:40:49.626Z,101128.50
2023-05-07T04:43:21.798Z,101129.38
2023-05-07T04:45:53.371Z,101130.25
2023-05-07T04:48:23.316Z,101132.88
2023-05-07T04:50:52.410Z,101137.25
2023-05-07T04:53:21.212Z,101139.88
2023-05-07T04:55:49.720Z,101146.00
2023-05-07T04:58:17.425Z,101147.78
2023-05-07T05:00:47.844Z,101151.28
2023-05-07T05:03:15.532Z,101157.44
2023-05-07T05:05:43.251Z,101160.06
2023-05-07T05:08:10.885Z,101160.94
2023-05-07T05:10:42.690Z,101160.94
2023-05-07T05:13:13.781Z,101160.06
2023-05-07T05:15:42.723Z,101159.16
2023-05-07T05:18:10.462Z,101175.84
2023-05-07T05:20:38.473Z,101174.94
2023-05-07T05:23:07.042Z,101171.41
2023-05-07T05:25:34.865Z,101179.31
2023-05-07T05:28:02.807Z,101170.53
2023-05-07T05:30:32.112Z,101183.69
2023-05-07T05:32:59.657Z,101179.28
2023-05-07T05:35:28.519Z,101181.94
2023-05-07T05:37:57.472Z,101181.91
2023-05-07T05:40:25.100Z,101184.50
2023-05-07T05:42:52.547Z,101191.53
2023-05-07T05:45:20.364Z,101193.28
2023-05-07T05:47:48.039Z,101195.91
2023-05-07T05:50:15.862Z,101192.38
2023-05-07T05:52:43.315Z,101194.13
2023-05-07T05:55:11.765Z,101201.19
2023-05-07T05:57:39.712Z,101201.19
2023-05-07T06:00:09.381Z,101202.03
2023-05-07T06:02:46.141Z,101216.06
2023-05-07T06:05:19.125Z,101217.75
2023-05-07T06:07:48.703Z,101219.47
2023-05-07T06:10:16.871Z,101219.47
2023-05-07T06:12:44.762Z,101218.63
2023-05-07T06:15:12.729Z,101228.25
2023-05-07T06:17:41.526Z,101222.13
2023-05-07T06:20:11.332Z,101226.41
2023-05-07T06:22:40.489Z,101224.59
2023-05-07T06:25:09.694Z,101229.78
2023-05-07T06:27:38.350Z,101230.50
2023-05-07T06:30:06.555Z,101238.06
2023-05-07T06:32:34.227Z,101236.56
2023-05-07T06:35:01.798Z,101245.72
2023-05-07T06:37:29.470Z,101246.38
2023-05-07T06:40:02.143Z,101237.50
2023-05-07T06:42:31.701Z,101250.88
2023-05-07T06:45:07.253Z,101248.38
2023-05-07T06:47:35.039Z,101259.94
2023-05-07T06:50:03.059Z,101263.72
2023-05-07T06:52:33.650Z,101261.28
2023-05-07T06:55:01.365Z,101258.75
2023-05-07T06:57:28.913Z,101258.88
2023-05-07T06:59:56.435Z,101265.94
2023-05-07T07:02:24.133Z,101266.81
2023-05-07T07:04:52.013Z,101265.94
2023-05-07T07:07:20.660Z,101270.38
2023-05-07T07:09:50.807Z,101265.28
2023-05-07T07:12:19.946Z,101271.47
2023-05-07T07:14:47.357Z,101267.09
2023-05-07T07:17:15.779Z,101278.59
2023-05-07T07:19:43.561Z,101285.69
2023-05-07T07:22:12.313Z,101283.16
2023-05-07T07:24:39.975Z,101290.19
2023-05-07T07:27:09.890Z,101299.00
2023-05-07T07:29:37.395Z,101304.28
2023-05-07T07:32:05.248Z,101301.63
2023-05-07T07:34:33.358Z,101316.56
2023-05-07T07:37:06.454Z,101317.47
2023-05-07T07:39:39.431Z,101306.06
2023-05-07T07:42:08.934Z,101314.88
2023-05-07T07:44:41.423Z,101314.03
2023-05-07T07:47:11.601Z,101326.25
2023-05-07T07:49:39.341Z,101328.88
2023-05-07T07:52:09.001Z,101328.91
2023-05-07T07:54:38.102Z,101330.66
2023-05-07T07:57:08.117Z,101335.03
2023-05-07T07:59:36.188Z,101334.16
2023-05-07T08:02:03.760Z,101334.09
2023-05-07T08:04:34.279Z,101334.06
2023-05-07T08:07:05.231Z,101340.22
2023-05-07T08:09:36.362Z,101329.63
2023-05-07T08:12:06.791Z,101336.63
2023-05-07T08:14:37.587Z,101336.59
2023-05-07T08:17:06.950Z,101341.84
2023-05-07T08:19:36.152Z,101340.94
2023-05-07T08:22:05.553Z,101352.34
2023-05-07T08:24:35.490Z,101356.72
2023-05-07T08:27:02.992Z,101350.56
2023-05-07T08:29:30.788Z,101353.22
2023-05-07T08:31:58.787Z,101358.50
2023-05-07T08:34:27.893Z,101357.63
2023-05-07T08:36:57.680Z,101355.88
2023-05-07T08:39:26.070Z,101362.00
2023-05-07T08:41:58.372Z,101352.19
2023-05-07T08:44:31.209Z,101359.00
2023-05-07T08:47:00.127Z,101355.94
2023-05-07T08:49:29.192Z,101364.72
2023-05-07T08:51:56.914Z,101366.56
2023-05-07T08:54:27.093Z,101363.81
2023-05-07T08:56:55.334Z,101360.56
2023-05-07T08:59:23.414Z,101364.09
2023-05-07T09:01:51.257Z,101372.72
2023-05-07T09:04:19.251Z,101370.88
2023-05-07T09:06:49.201Z,101376.31
2023-05-07T09:09:19.955Z,101375.75
2023-05-07T09:11:48.001Z,101377.69
2023-05-07T09:14:18.866Z,101382.38
2023-05-07T09:16:47.772Z,101367.84
2023-05-07T09:19:15.664Z,101374.34
2023-05-07T09:21:46.590Z,101378.09
2023-05-07T09:24:17.364Z,101377.50
2023-05-07T09:26:45.752Z,101379.00
2023-05-07T09:29:18.200Z,101381.81
2023-05-07T09:31:46.442Z,101376.69
2023-05-07T09:34:17.348Z,101388.56
2023-05-07T09:36:46.675Z,101385.28
2023-05-07T09:39:15.063Z,101384.78
2023-05-07T09:41:47.462Z,101392.91
2023-05-07T09:44:23.041Z,101400.34
2023-05-07T09:46:56.350Z,101393.19
2023-05-07T09:49:37.375Z,101407.88
2023-05-07T09:52:10.219Z,101402.97
2023-05-07T09:54:45.020Z,101398.88
2023-05-07T09:57:15.165Z,101404.63
2023-05-07T09:59:47.221Z,101406.69
2023-05-07T10:02:21.236Z,101401.53
2023-05-07T10:04:53.890Z,101404.34
2023-05-07T10:07:26.558Z,101401.97
2023-05-07T10:10:00.509Z,101403.97
2023-05-07T10:12:40.271Z,101418.59
2023-05-07T10:15:15.726Z,101421.63
2023-05-07T10:17:49.563Z,101419.22
2023-05-07T10:20:17.946Z,101429.13
2023-05-07T10:22:49.735Z,101428.06
2023-05-07T10:25:31.568Z,101431.44
2023-05-07T10:28:09.859Z,101433.69
2023-05-07T10:31:16.100Z,101432.59
2023-05-07T10:33:49.471Z,101435.94
2023-05-07T10:36:19.449Z,101438.47
2023-05-07T10:38:48.191Z,101441.94
2023-05-07T10:41:19.709Z,101446.38
2023-05-07T10:43:48.363Z,101443.63
2023-05-07T10:46:26.802Z,101458.66
2023-05-07T10:49:09.304Z,101446.47
2023-05-07T10:51:46.918Z,101459.22
2023-05-07T10:54:28.432Z,101454.31
2023-05-07T10:57:48.035Z,101454.59
2023-05-07T11:00:37.997Z,101458.28
2023-05-07T11:03:09.027Z,101467.28
2023-05-07T11:05:46.670Z,101466.59
2023-05-07T11:08:53.175Z,101465.75
2023-05-07T11:11:47.952Z,101467.50
2023-05-07T11:14:42.333Z,101465.56
2023-05-07T11:17:13.988Z,101465.22
2023-05-07T11:19:56.164Z,101464.78
2023-05-07T11:22:49.841Z,101469.25
2023-05-07T11:25:44.112Z,101466.84
2023-05-07T11:28:18.115Z,101475.06
2023-05-07T11:30:54.037Z,101477.63
2023-05-07T11:33:23.581Z,101479.63
2023-05-07T11:35:57.249Z,101484.84
2023-05-07T11:38:32.256Z,101483.66
2023-05-07T11:41:05.280Z,101486.91
2023-05-07T11:43:33.919Z,101493.22
2023-05-07T11:46:10.257Z,101498.72
2023-05-07T11:48:38.440Z,101492.00
2023-05-07T11:51:07.632Z,101490.56
2023-05-07T11:53:43.746Z,101488.31
2023-05-07T11:56:16.685Z,101495.72
2023-05-07T11:58:46.461Z,101507.50
2023-05-07T12:01:15.008Z,101504.03
2023-05-07T12:03:44.150Z,101496.13
2023-05-07T12:06:12.877Z,101503.31
2023-05-07T12:08:42.096Z,101494.56
2023-05-07T12:11:14.006Z,101502.53
2023-05-07T12:13:42.565Z,101514.91
2023-05-07T12:16:10.450Z,101525.44
2023-05-07T12:18:38.896Z,101520.19
2023-05-07T12:21:07.768Z,101516.81
2023-05-07T12:23:37.502Z,101514.34
2023-05-07T12:26:07.374Z,101525.84
2023-05-07T12:28:40.069Z,101519.66
2023-05-07T12:31:08.693Z,101520.44
2023-05-07T12:33:37.033Z,101527.19
2023-05-07T12:36:08.684Z,101527.69
2023-05-07T12:38:41.079Z,101531.63
2023-05-07T12:41:11.042Z,101530.47
2023-05-07T12:43:39.346Z,101530.44
2023-05-07T12:46:09.097Z,101535.72
2023-05-07T12:48:45.827Z,101534.88
2023-05-07T12:51:14.692Z,101541.38
2023-05-07T12:53:45.645Z,101547.56
2023-05-07T12:56:13.444Z,101533.25
2023-05-07T12:58:40.950Z,101540.34
2023-05-07T13:01:11.175Z,101538.81
2023-05-07T13:03:39.864Z,101529.00
2023-05-07T13:06:11.150Z,101531.00
2023-05-07T13:08:42.522Z,101528.25
2023-05-07T13:11:11.391Z,101519.50
2023-05-07T13:13:40.921Z,101522.28
2023-05-07T13:16:10.652Z,101514.44
2023-05-07T13:18:40.793Z,101512.13
2023-05-07T13:21:14.438Z,101522.09
2023-05-07T13:23:42.329Z,101524.97
2023-05-07T13:26:22.418Z,101523.69
2023-05-07T13:28:55.218Z,101523.91
2023-05-07T13:31:22.780Z,101523.25
2023-05-07T13:33:50.696Z,101534.75
2023-05-07T13:36:18.157Z,101531.06
2023-05-07T13:38:45.694Z,101528.34
2023-05-07T13:41:14.223Z,101533.97
2023-05-07T13:43:41.726Z,101527.69
2023-05-07T13:46:09.518Z,101533.88
2023-05-07T13:48:37.588Z,101535.34
2023-05-07T13:51:05.709Z,101542.44
2023-05-07T13:53:33.206Z,101526.94
2023-05-07T13:56:00.631Z,101525.03
2023-05-07T13:58:28.038Z,101524.25
2023-05-07T14:00:55.605Z,101531.22
2023-05-07T14:03:23.395Z,101536.38
2023-05-07T14:05:50.919Z,101546.28
2023-05-07T14:08:21.023Z,101545.81
2023-05-07T14:10:48.479Z,101545.06
2023-05-07T14:13:16.208Z,101547.91
2023-05-07T14:15:47.571Z,101543.63
2023-05-07T14:18:15.411Z,101553.44
2023-05-07T14:20:44.950Z,101551.88
2023-05-07T14:23:12.546Z,101549.28
2023-05-07T14:25:40.079Z,101550.09
2023-05-07T14:28:08.876Z,101554.13
2023-05-07T14:30:36.653Z,101553.94
2023-05-07T14:33:04.438Z,101560.06
2023-05-07T14:35:31.961Z,101559.56
2023-05-07T14:37:59.484Z,101553.75
2023-05-07T14:40:27.006Z,101560.78
2023-05-07T14:42:54.636Z,101557.88
2023-05-07T14:45:22.601Z,101560.56
2023-05-07T14:47:50.532Z,101562.75
2023-05-07T14:50:17.982Z,101561.94
2023-05-07T14:52:45.450Z,101562.78
2023-05-07T14:55:13.376Z,101570.81
2023-05-07T14:57:41.505Z,101560.03
2023-05-07T15:00:10.699Z,101552.88
2023-05-07T15:02:38.402Z,101555.47
2023-05-07T15:05:06.481Z,101550.25
2023-05-07T15:07:35.433Z,101554.56
2023-05-07T15:10:02.929Z,101557.31
2023-05-07T15:12:31.005Z,101556.69
2023-05-07T15:14:58.495Z,101557.31
2023-05-07T15:17:26.109Z,101542.03
2023-05-07T15:19:54.464Z,101542.06
2023-05-07T15:22:22.785Z,101554.47
2023-05-07T15:24:50.202Z,101551.84
2023-05-07T15:27:18.326Z,101554.78
2023-05-07T15:29:46.108Z,101561.16
2023-05-07T15:32:14.513Z,101566.44
2023-05-07T15:34:42.432Z,101560.88
2023-05-07T15:37:10.036Z,101562.63
2023-05-07T15:39:37.417Z,101559.06
2023-05-07T15:42:05.049Z,101560.00
2023-05-07T15:44:35.535Z,101566.97
2023-05-07T15:47:03.396Z,101568.47
2023-05-07T15:49:31.210Z,101561.34
2023-05-07T15:51:58.900Z,101563.91
2023-05-07T15:54:26.500Z,101573.44
2023-05-07T15:56:53.947Z,101571.72
2023-05-07T15:59:21.786Z,101574.53
2023-05-07T16:01:50.050Z,101568.31
2023-05-07T16:04:17.603Z,101571.66
2023-05-07T16:06:47.568Z,101575.22
2023-05-07T16:09:15.367Z,101562.91
2023-05-07T16:11:42.997Z,101562.25
2023-05-07T16:14:10.441Z,101567.72
2023-05-07T16:16:39.551Z,101565.19
2023-05-07T16:19:07.419Z,101564.38
2023-05-07T16:21:35.625Z,101570.50
2023-05-07T16:24:03.160Z,101567.03
2023-05-07T16:26:30.960Z,101573.09
2023-05-07T16:28:58.919Z,101580.47
2023-05-07T16:31:26.563Z,101580.56
2023-05-07T16:33:54.121Z,101589.72
2023-05-07T16:36:21.625Z,101585.59
2023-05-07T16:38:49.066Z,101596.25
2023-05-07T16:41:16.630Z,101590.19
2023-05-07T16:43:44.083Z,101598.31
2023-05-07T16:46:11.610Z,101598.41
2023-05-07T16:48:39.218Z,101596.72
2023-05-07T16:51:08.221Z,101603.91
2023-05-07T16:53:36.054Z,101598.78
2023-05-07T16:56:06.755Z,101596.19
2023-05-07T16:58:34.551Z,101594.50
2023-05-07T17:01:02.702Z,101587.31
2023-05-07T17:03:32.311Z,101582.91
2023-05-07T17:06:00.053Z,101592.63
2023-05-07T17:08:27.550Z,101584.78
2023-05-07T17:10:55.108Z,101592.69
2023-05-07T17:13:22.693Z,101584.75
2023-05-07T17:15:50.430Z,101575.06
2023-05-07T17:18:17.903Z,101572.50
2023-05-07T17:20:45.412Z,101566.44
2023-05-07T17:23:14.040Z,101566.56
2023-05-07T17:25:45.692Z,101557.94
2023-05-07T17:28:13.655Z,101564.16
2023-05-07T17:30:41.895Z,101570.34
2023-05-07T17:33:20.164Z,101569.59
2023-05-07T17:35:48.905Z,101570.69
2023-05-07T17:38:16.491Z,101573.31
2023-05-07T17:40:43.972Z,101574.03
2023-05-07T17:43:11.555Z,101576.75
2023-05-07T17:45:39.216Z,101579.44
2023-05-07T17:48:07.005Z,101585.59
2023-05-07T17:50:34.495Z,101580.31
2023-05-07T17:53:02.150Z,101576.88
2023-05-07T17:55:32.832Z,101575.06
2023-05-07T17:58:00.574Z,101585.59
2023-05-07T18:00:28.071Z,101579.78
2023-05-07T18:02:55.699Z,101584.31
2023-05-07T18:05:23.292Z,101587.09
2023-05-07T18:07:50.853Z,101589.84
2023-05-07T18:10:19.958Z,101593.50
2023-05-07T18:12:47.453Z,101602.47
2023-05-07T18:15:15.176Z,101602.50
2023-05-07T18:17:42.657Z,101613.94
2023-05-07T18:20:11.814Z,101605.16
2023-05-07T18:22:39.644Z,101606.06
2023-05-07T18:25:07.880Z,101606.13
2023-05-07T18:27:35.603Z,101608.84
2023-05-07T18:30:03.449Z,101613.31
2023-05-07T18:32:30.923Z,101618.59
2023-05-07T18:34:58.625Z,101618.56
2023-05-07T18:37:26.848Z,101616.84
2023-05-07T18:39:54.438Z,101628.25
2023-05-07T18:42:21.919Z,101628.31
2023-05-07T18:44:50.604Z,101625.63
2023-05-07T18:47:18.163Z,101628.28
2023-05-07T18:49:45.611Z,101645.03
2023-05-07T18:52:13.057Z,101646.81
2023-05-07T18:54:40.646Z,101651.28
2023-05-07T18:57:08.062Z,101646.00
2023-05-07T18:59:35.618Z,101652.16
2023-05-07T19:02:03.608Z,101653.03
2023-05-07T19:04:31.258Z,101667.13
2023-05-07T19:06:58.836Z,101665.38
2023-05-07T19:09:26.305Z,101676.81
2023-05-07T19:11:55.360Z,101675.06
2023-05-07T19:14:22.832Z,101674.19
2023-05-07T19:16:50.261Z,101674.16
2023-05-07T19:19:17.777Z,101678.56
2023-05-07T19:21:45.317Z,101686.47
2023-05-07T19:24:12.863Z,101685.56
2023-05-07T19:26:41.109Z,101680.31
2023-05-07T19:29:17.576Z,101687.31
2023-05-07T19:31:46.057Z,101692.56
2023-05-07T19:34:14.283Z,101693.44
2023-05-07T19:36:42.006Z,101690.78
2023-05-07T19:39:09.580Z,101699.56
2023-05-07T19:41:37.213Z,101698.59
2023-05-07T19:44:04.940Z,101702.97
2023-05-07T19:46:32.564Z,101703.78
2023-05-07T19:49:01.501Z,101702.91
2023-05-07T19:51:32.519Z,101705.53
2023-05-07T19:54:00.298Z,101708.16
2023-05-07T19:56:27.925Z,101709.03
2023-05-07T19:58:55.630Z,101717.00
2023-05-07T20:01:23.095Z,101713.31
2023-05-07T20:03:50.709Z,101724.72
2023-05-07T20:06:18.219Z,101730.81
2023-05-07T20:08:45.803Z,101729.94
2023-05-07T20:11:14.270Z,101731.69
2023-05-07T20:13:41.889Z,101741.22
2023-05-07T20:16:09.585Z,101743.81
2023-05-07T20:18:37.301Z,101747.31
2023-05-07T20:21:05.209Z,101750.84
2023-05-07T20:23:33.357Z,101749.06
2023-05-07T20:26:00.970Z,101757.75
2023-05-07T20:28:28.591Z,101754.22
2023-05-07T20:30:56.097Z,101768.16
2023-05-07T20:33:23.701Z,101771.66
2023-05-07T20:35:51.093Z,101777.66
2023-05-07T20:38:18.727Z,101779.47
2023-05-07T20:40:46.220Z,101794.44
2023-05-07T20:43:13.733Z,101791.00
2023-05-07T20:45:41.277Z,101796.38
2023-05-07T20:48:08.757Z,101796.25
2023-05-07T20:50:36.313Z,101793.63
2023-05-07T20:53:03.859Z,101804.97
2023-05-07T20:55:31.336Z,101800.38
2023-05-07T20:57:58.840Z,101801.31
2023-05-07T21:00:26.280Z,101808.28
2023-05-07T21:02:54.087Z,101816.34
2023-05-07T21:05:21.811Z,101814.59
2023-05-07T21:07:49.333Z,101812.88
2023-05-07T21:10:16.820Z,101810.22
2023-05-07T21:12:44.327Z,101813.53
2023-05-07T21:15:14.142Z,101813.50
2023-05-07T21:17:41.631Z,101809.00
2023-05-07T21:20:09.477Z,101814.28
2023-05-07T21:22:37.130Z,101811.09
2023-05-07T21:25:04.943Z,101812.00
2023-05-07T21:27:32.483Z,101804.81
2023-05-07T21:30:04.883Z,101805.59
2023-05-07T21:32:32.682Z,101810.94
2023-05-07T21:35:01.026Z,101805.75
2023-05-07T21:37:28.692Z,101811.88
2023-05-07T21:39:56.294Z,101815.50
2023-05-07T21:42:25.347Z,101814.66
2023-05-07T21:44:52.771Z,101806.78
2023-05-07T21:47:20.424Z,101811.00
2023-05-07T21:49:47.930Z,101801.38
2023-05-07T21:52:17.193Z,101800.50
2023-05-07T21:54:44.639Z,101798.66
2023-05-07T21:57:12.122Z,101796.81
2023-05-07T21:59:39.487Z,101789.66
2023-05-07T22:02:06.988Z,101796.56
2023-05-07T22:04:34.488Z,101806.06
2023-05-07T22:07:02.127Z,101798.13
2023-05-07T22:09:29.571Z,101799.91
2023-05-07T22:11:57.101Z,101797.38
2023-05-07T22:14:24.577Z,101809.53
2023-05-07T22:16:52.144Z,101813.91
2023-05-07T22:19:19.757Z,101805.38
2023-05-07T22:21:47.264Z,101814.75
2023-05-07T22:24:15.457Z,101816.53
2023-05-07T22:26:42.982Z,101813.91
2023-05-07T22:29:10.410Z,101808.84
2023-05-07T22:31:37.926Z,101815.84
2023-05-07T22:34:05.413Z,101814.72
2023-05-07T22:36:33.366Z,101815.44
2023-05-07T22:39:01.532Z,101815.34
2023-05-07T22:41:29.024Z,101824.25
2023-05-07T22:43:56.445Z,101827.78
2023-05-07T22:46:24.077Z,101827.59
2023-05-07T22:48:51.811Z,101829.31
2023-05-07T22:51:19.337Z,101832.88
2023-05-07T22:53:46.752Z,101825.13
2023-05-07T22:56:14.409Z,101813.97
2023-05-07T22:58:41.792Z,101812.44
2023-05-07T23:01:14.046Z,101814.19
2023-05-07T23:03:41.732Z,101818.59
2023-05-07T23:06:09.404Z,101823.91
2023-05-07T23:08:36.982Z,101824.53
2023-05-07T23:11:04.526Z,101831.44
2023-05-07T23:13:33.843Z,101838.38
2023-05-07T23:16:01.385Z,101837.47
2023-05-07T23:18:30.349Z,101842.75
2023-05-07T23:20:57.918Z,101841.97
2023-05-07T23:23:25.417Z,101848.28
2023-05-07T23:25:53.284Z,101843.09
2023-05-07T23:28:20.768Z,101845.72
2023-05-07T23:30:48.310Z,101849.16
2023-05-07T23:33:16.053Z,101837.78
2023-05-07T23:35:43.529Z,101830.06
2023-05-07T23:38:11.000Z,101824.84
2023-05-07T23:40:38.353Z,101821.47
2023-05-07T23:43:05.894Z,101830.22
2023-05-07T23:45:33.498Z,101825.91
2023-05-07T23:48:01.091Z,101828.53
2023-05-07T23:50:28.490Z,101821.59
2023-05-07T23:52:55.900Z,101820.75
2023-05-07T23:55:23.384Z,101817.16
2023-05-07T23:57:51.111Z,101817.94
